Time;durP1;ratioP1;P1;durP2;ratioP2;P2;SDS_P1;SDS_P2;PMS_P1;PMS_P2;Temp;Humidity;BMP_temperature;BMP_pressure;BME280_temperature;BME280_humidity;BME280_pressure;Samples;Min_cycle;Max_cycle;Signal;HPM_P1;HPM_P2
2022/01/05 00:00:43;;;;;;;61.30;37.40;;;;;;;;;;5074354;28;20212;-68
2022/01/05 00:03:10;;;;;;;50.85;34.72;;;;;;;;;;5059543;28;20207;-66
2022/01/05 00:05:38;;;;;;;51.10;34.75;;;;;;;;;;5076921;28;20222;-71
2022/01/05 00:08:05;;;;;;;48.25;33.67;;;;;;;;;;5077273;28;20207;-67
2022/01/05 00:10:32;;;;;;;40.15;29.73;;;;;;;;;;5075841;28;20211;-66
2022/01/05 00:12:59;;;;;;;57.80;32.42;;;;;;;;;;5076933;28;20239;-68
2022/01/05 00:15:27;;;;;;;42.75;26.20;;;;;;;;;;5076950;28;20226;-67
2022/01/05 00:17:54;;;;;;;46.60;27.52;;;;;;;;;;5076621;28;20211;-69
2022/01/05 00:20:23;;;;;;;50.70;26.40;;;;;;;;;;5076520;28;20247;-66
2022/01/05 00:22:50;;;;;;;48.03;33.40;;;;;;;;;;5076219;28;20207;-67
2022/01/05 00:25:18;;;;;;;38.88;25.13;;;;;;;;;;5075559;28;20211;-67
2022/01/05 00:27:45;;;;;;;31.10;21.75;;;;;;;;;;5076424;28;20306;-69
2022/01/05 00:30:13;;;;;;;50.75;26.13;;;;;;;;;;5075433;28;20203;-70
2022/01/05 00:32:41;;;;;;;53.38;27.00;;;;;;;;;;5076673;28;20231;-67
2022/01/05 00:35:08;;;;;;;44.53;26.27;;;;;;;;;;5076429;28;20207;-66
2022/01/05 00:37:39;;;;;;;44.90;24.30;;;;;;;;;;5076497;28;20541;-66
2022/01/05 00:40:07;;;;;;;35.30;21.13;;;;;;;;;;5076329;28;20246;-66
2022/01/05 00:42:34;;;;;;;29.90;20.02;;;;;;;;;;5076415;28;20238;-70
2022/01/05 00:45:03;;;;;;;46.00;24.60;;;;;;;;;;5076459;28;20223;-69
2022/01/05 00:47:30;;;;;;;28.02;17.17;;;;;;;;;;5076093;28;20215;-71
2022/01/05 00:49:57;;;;;;;52.13;22.83;;;;;;;;;;5076314;28;20212;-69
2022/01/05 00:52:24;;;;;;;46.77;21.37;;;;;;;;;;5076186;28;20222;-69
2022/01/05 00:54:52;;;;;;;40.40;20.00;;;;;;;;;;5075820;28;20654;-68
2022/01/05 00:57:19;;;;;;;27.45;17.13;;;;;;;;;;5075637;28;20697;-72
2022/01/05 00:59:46;;;;;;;16.83;12.93;;;;;;;;;;5075848;28;20733;-72
2022/01/05 01:02:13;;;;;;;14.48;11.05;;;;;;;;;;5075924;28;20264;-71
2022/01/05 01:04:41;;;;;;;13.55;9.88;;;;;;;;;;5074704;28;20294;-70
2022/01/05 01:07:08;;;;;;;15.95;11.00;;;;;;;;;;5075649;28;20662;-71
2022/01/05 01:09:36;;;;;;;13.80;10.07;;;;;;;;;;5076007;28;20249;-69
2022/01/05 01:12:04;;;;;;;11.70;8.77;;;;;;;;;;5075881;28;20211;-70
2022/01/05 01:14:32;;;;;;;12.13;9.18;;;;;;;;;;5075723;28;20744;-70
2022/01/05 01:16:59;;;;;;;14.02;9.65;;;;;;;;;;5074498;28;20326;-69
2022/01/05 01:19:26;;;;;;;11.73;8.30;;;;;;;;;;5074724;28;20277;-70
2022/01/05 01:21:55;;;;;;;9.82;7.10;;;;;;;;;;5075894;28;20215;-71
2022/01/05 01:24:22;;;;;;;9.82;6.70;;;;;;;;;;5076233;28;20294;-70
2022/01/05 01:26:49;;;;;;;10.23;7.07;;;;;;;;;;5076026;28;20216;-71
2022/01/05 01:29:17;;;;;;;7.63;6.13;;;;;;;;;;5076066;28;20219;-71
2022/01/05 01:31:44;;;;;;;8.68;6.40;;;;;;;;;;5075987;28;20294;-71
2022/01/05 01:34:11;;;;;;;10.10;7.15;;;;;;;;;;5075666;28;20662;-71
2022/01/05 01:36:38;;;;;;;9.63;6.13;;;;;;;;;;5075890;28;20210;-70
2022/01/05 01:39:06;;;;;;;8.63;5.40;;;;;;;;;;5075790;28;20309;-69
2022/01/05 01:41:33;;;;;;;8.98;6.60;;;;;;;;;;5075821;28;20810;-71
2022/01/05 01:44:00;;;;;;;10.50;7.03;;;;;;;;;;5075592;28;20223;-70
2022/01/05 01:46:27;;;;;;;9.33;6.40;;;;;;;;;;5075433;28;20220;-69
2022/01/05 01:48:55;;;;;;;10.07;7.20;;;;;;;;;;5074219;28;20211;-66
2022/01/05 01:51:22;;;;;;;7.03;5.37;;;;;;;;;;5075679;28;20260;-70
2022/01/05 01:53:50;;;;;;;7.23;5.37;;;;;;;;;;5075466;28;20243;-70
2022/01/05 01:56:18;;;;;;;9.10;4.53;;;;;;;;;;5075430;28;20222;-71
2022/01/05 01:58:48;;;;;;;7.70;5.57;;;;;;;;;;5073771;28;20749;-70
2022/01/05 02:01:16;;;;;;;7.83;5.70;;;;;;;;;;5074030;28;20298;-70
2022/01/05 02:03:44;;;;;;;7.57;5.57;;;;;;;;;;5075170;28;20288;-71
2022/01/05 02:06:11;;;;;;;6.73;5.40;;;;;;;;;;5075436;28;20261;-70
2022/01/05 02:08:38;;;;;;;7.70;5.40;;;;;;;;;;5075308;28;20207;-71
2022/01/05 02:11:07;;;;;;;7.53;5.50;;;;;;;;;;5075387;28;20231;-70
2022/01/05 02:13:35;;;;;;;6.60;4.83;;;;;;;;;;5075214;28;20689;-69
2022/01/05 02:16:03;;;;;;;7.70;5.03;;;;;;;;;;5074972;28;20211;-66
2022/01/05 02:21:16;;;;;;;9.37;5.80;;;;;;;;;;5074801;28;20250;-69
2022/01/05 02:23:43;;;;;;;10.00;5.80;;;;;;;;;;5074227;28;20291;-69
2022/01/05 02:26:11;;;;;;;8.20;6.47;;;;;;;;;;5074759;28;20215;-70
2022/01/05 02:28:39;;;;;;;11.83;8.13;;;;;;;;;;5074785;28;20632;-70
2022/01/05 02:31:07;;;;;;;9.77;7.40;;;;;;;;;;5074917;28;20218;-68
2022/01/05 02:33:35;;;;;;;9.40;7.23;;;;;;;;;;5074671;28;20248;-70
2022/01/05 02:36:04;;;;;;;9.67;7.37;;;;;;;;;;5074684;28;20221;-69
2022/01/05 02:38:32;;;;;;;12.33;7.40;;;;;;;;;;5074550;28;20207;-72
2022/01/05 02:41:07;;;;;;;14.07;9.20;;;;;;;;;;5074657;28;20231;-70
2022/01/05 02:43:38;;;;;;;11.23;7.87;;;;;;;;;;5074477;28;20202;-68
2022/01/05 02:46:11;;;;;;;10.77;8.30;;;;;;;;;;5073533;28;20210;-69
2022/01/05 02:48:40;;;;;;;13.13;8.80;;;;;;;;;;5074518;28;20677;-70
2022/01/05 02:51:08;;;;;;;13.30;7.93;;;;;;;;;;5074686;28;20207;-68
2022/01/05 02:53:35;;;;;;;11.30;7.10;;;;;;;;;;5074250;28;20215;-68
2022/01/05 02:56:03;;;;;;;12.57;8.30;;;;;;;;;;5074610;28;20211;-70
2022/01/05 02:58:31;;;;;;;14.83;9.77;;;;;;;;;;5073991;28;20246;-69
2022/01/05 03:00:58;;;;;;;13.50;8.17;;;;;;;;;;5074243;28;20244;-69
2022/01/05 03:03:25;;;;;;;30.20;11.90;;;;;;;;;;5074330;28;20543;-69
2022/01/05 03:05:53;;;;;;;18.63;10.10;;;;;;;;;;5074362;28;20218;-69
2022/01/05 03:08:20;;;;;;;122.30;47.30;;;;;;;;;;5074184;28;20211;-69
2022/01/05 03:10:47;;;;;;;18.43;10.37;;;;;;;;;;5074379;28;20207;-70
2022/01/05 03:13:15;;;;;;;21.23;11.20;;;;;;;;;;5073316;28;20211;-70
2022/01/05 03:15:42;;;;;;;14.37;9.47;;;;;;;;;;5072985;28;20704;-68
2022/01/05 03:18:09;;;;;;;41.97;15.37;;;;;;;;;;5073981;28;20211;-70
2022/01/05 03:20:37;;;;;;;31.63;13.13;;;;;;;;;;5074159;28;20284;-70
2022/01/05 03:23:04;;;;;;;63.10;20.67;;;;;;;;;;5073843;28;20218;-70
2022/01/05 03:25:32;;;;;;;45.30;16.40;;;;;;;;;;5074196;28;20211;-70
2022/01/05 03:27:59;;;;;;;47.60;16.13;;;;;;;;;;5074155;28;20215;-69
2022/01/05 03:30:30;;;;;;;22.00;13.70;;;;;;;;;;5073895;28;20247;-69
2022/01/05 03:35:55;;;;;;;40.47;17.60;;;;;;;;;;5066210;28;20219;-70
2022/01/05 03:38:23;;;;;;;59.37;21.20;;;;;;;;;;5078118;28;20207;-70
2022/01/05 03:40:51;;;;;;;37.70;17.20;;;;;;;;;;5077885;28;20242;-69
2022/01/05 03:43:18;;;;;;;40.73;18.87;;;;;;;;;;5076347;28;20280;-70
2022/01/05 03:45:45;;;;;;;59.07;23.03;;;;;;;;;;5078123;28;20237;-70
2022/01/05 03:48:15;;;;;;;52.47;22.07;;;;;;;;;;5077753;28;20297;-68
2022/01/05 03:50:43;;;;;;;159.70;99.90;;;;;;;;;;5078430;28;20290;-68
2022/01/05 03:53:11;;;;;;;96.50;31.20;;;;;;;;;;5077663;28;20211;-70
2022/01/05 03:55:41;;;;;;;63.93;23.37;;;;;;;;;;5077491;28;21002;-68
2022/01/05 03:58:09;;;;;;;38.13;16.70;;;;;;;;;;5077291;28;20771;-66
2022/01/05 04:00:39;;;;;;;48.73;19.40;;;;;;;;;;5077485;28;20620;-70
2022/01/05 04:03:07;;;;;;;47.23;19.27;;;;;;;;;;5077818;28;20592;-67
2022/01/05 04:05:34;;;;;;;37.93;16.50;;;;;;;;;;5077626;28;20241;-68
2022/01/05 04:08:02;;;;;;;102.47;30.53;;;;;;;;;;5077431;28;20624;-70
2022/01/05 04:10:29;;;;;;;55.73;19.10;;;;;;;;;;5075937;28;20219;-69
2022/01/05 04:12:57;;;;;;;35.23;15.70;;;;;;;;;;5077181;28;20610;-69
2022/01/05 04:15:24;;;;;;;25.37;12.07;;;;;;;;;;5077216;28;20261;-68
2022/01/05 04:17:51;;;;;;;31.47;13.83;;;;;;;;;;5077019;28;20651;-69
2022/01/05 04:20:18;;;;;;;25.57;11.83;;;;;;;;;;5077188;28;20231;-70
2022/01/05 04:22:46;;;;;;;16.37;9.50;;;;;;;;;;5076007;28;20670;-67
2022/01/05 04:25:14;;;;;;;28.60;10.20;;;;;;;;;;5077390;28;20214;-70
2022/01/05 04:27:42;;;;;;;40.30;14.40;;;;;;;;;;5077018;28;20215;-69
2022/01/05 04:30:10;;;;;;;20.43;10.23;;;;;;;;;;5076989;28;20222;-69
2022/01/05 04:32:38;;;;;;;17.33;11.67;;;;;;;;;;5077232;28;20211;-67
2022/01/05 04:35:26;;;;;;;19.93;9.97;;;;;;;;;;5077117;28;20203;-67
2022/01/05 04:37:54;;;;;;;18.23;9.60;;;;;;;;;;5076931;28;20218;-68
2022/01/05 04:40:22;;;;;;;15.03;9.27;;;;;;;;;;5076926;28;20727;-70
2022/01/05 04:42:49;;;;;;;18.63;10.00;;;;;;;;;;5077051;28;20207;-69
2022/01/05 04:45:17;;;;;;;16.00;9.43;;;;;;;;;;5076663;28;20215;-69
2022/01/05 04:47:44;;;;;;;24.70;11.30;;;;;;;;;;5076299;28;20207;-69
2022/01/05 04:50:15;;;;;;;20.90;10.37;;;;;;;;;;5076891;28;20238;-70
2022/01/05 04:52:42;;;;;;;60.27;28.63;;;;;;;;;;5076820;28;20216;-68
2022/01/05 04:55:10;;;;;;;38.77;16.10;;;;;;;;;;5076475;28;20678;-69
2022/01/05 04:57:38;;;;;;;75.23;23.87;;;;;;;;;;5076388;28;20320;-69
2022/01/05 05:00:05;;;;;;;48.90;18.50;;;;;;;;;;5076213;28;20227;-69
2022/01/05 05:02:33;;;;;;;56.10;20.47;;;;;;;;;;5076712;28;20208;-70
2022/01/05 05:05:01;;;;;;;59.70;28.80;;;;;;;;;;5068856;28;20493;-66
2022/01/05 05:07:28;;;;;;;65.27;28.70;;;;;;;;;;5072407;28;20281;-70
2022/01/05 05:09:55;;;;;;;72.83;27.63;;;;;;;;;;5074139;28;20714;-67
2022/01/05 05:12:23;;;;;;;78.47;35.00;;;;;;;;;;5075548;28;20235;-69
2022/01/05 05:14:50;;;;;;;107.73;39.77;;;;;;;;;;5073969;28;20718;-67
2022/01/05 05:17:17;;;;;;;72.20;25.70;;;;;;;;;;5071639;28;20228;-64
2022/01/05 05:19:45;;;;;;;66.00;26.43;;;;;;;;;;5066541;28;20243;-64
2022/01/05 05:22:12;;;;;;;82.13;31.17;;;;;;;;;;5055757;28;20236;-64
2022/01/05 05:24:39;;;;;;;60.17;24.87;;;;;;;;;;5055837;28;20270;-68
2022/01/05 05:27:07;;;;;;;36.13;19.17;;;;;;;;;;5055206;28;20228;-65
2022/01/05 05:29:34;;;;;;;45.17;23.23;;;;;;;;;;5055703;28;20313;-65
2022/01/05 05:32:02;;;;;;;131.33;40.10;;;;;;;;;;5055110;28;20236;-68
2022/01/05 05:34:29;;;;;;;94.63;71.87;;;;;;;;;;5055042;28;20607;-64
2022/01/05 05:36:56;;;;;;;39.60;21.57;;;;;;;;;;5055053;28;20289;-69
2022/01/05 05:39:23;;;;;;;26.33;17.03;;;;;;;;;;5055685;28;20278;-63
2022/01/05 05:41:51;;;;;;;26.13;17.33;;;;;;;;;;5055237;28;20274;-64
2022/01/05 05:44:18;;;;;;;31.70;18.90;;;;;;;;;;5074545;28;20649;-68
2022/01/05 05:46:45;;;;;;;32.23;20.10;;;;;;;;;;5073881;28;20267;-70
2022/01/05 05:49:12;;;;;;;42.20;20.63;;;;;;;;;;5075103;28;20232;-71
2022/01/05 05:51:39;;;;;;;36.43;20.80;;;;;;;;;;5074642;28;20243;-71
2022/01/05 05:54:06;;;;;;;66.83;27.23;;;;;;;;;;5075442;28;20319;-70
2022/01/05 05:56:34;;;;;;;58.60;30.20;;;;;;;;;;5071665;28;20223;-67
2022/01/05 05:59:01;;;;;;;57.07;29.07;;;;;;;;;;5053809;28;20301;-69
2022/01/05 06:01:29;;;;;;;54.47;32.57;;;;;;;;;;5054689;28;20393;-66
2022/01/05 06:03:56;;;;;;;47.53;29.60;;;;;;;;;;5054683;28;20242;-67
2022/01/05 06:06:24;;;;;;;52.87;28.57;;;;;;;;;;5053898;28;20234;-70
2022/01/05 06:08:51;;;;;;;66.07;35.30;;;;;;;;;;5054954;28;20236;-67
2022/01/05 06:11:18;;;;;;;54.33;33.43;;;;;;;;;;5054398;28;20325;-65
2022/01/05 06:13:45;;;;;;;76.67;34.73;;;;;;;;;;5054645;28;20236;-67
2022/01/05 06:16:13;;;;;;;74.03;47.97;;;;;;;;;;5056299;28;20273;-68
2022/01/05 06:18:40;;;;;;;68.33;36.00;;;;;;;;;;5062748;28;20613;-71
2022/01/05 06:21:07;;;;;;;70.37;38.70;;;;;;;;;;5061107;28;20703;-69
2022/01/05 06:23:34;;;;;;;69.57;39.60;;;;;;;;;;5062209;28;20235;-66
2022/01/05 06:26:02;;;;;;;80.60;42.13;;;;;;;;;;5062332;28;20689;-67
2022/01/05 06:28:30;;;;;;;61.80;31.87;;;;;;;;;;5063595;28;20235;-67
2022/01/05 06:30:59;;;;;;;76.50;38.30;;;;;;;;;;5062172;28;20317;-68
2022/01/05 06:33:26;;;;;;;58.20;32.83;;;;;;;;;;5061942;28;20246;-67
2022/01/05 06:35:53;;;;;;;54.10;32.30;;;;;;;;;;5062681;28;20318;-63
2022/01/05 06:38:21;;;;;;;86.80;40.13;;;;;;;;;;5062598;28;20613;-64
2022/01/05 06:40:49;;;;;;;66.40;35.87;;;;;;;;;;5061702;28;20242;-62
2022/01/05 06:43:19;;;;;;;56.27;31.90;;;;;;;;;;5061730;28;20240;-62
2022/01/05 06:45:48;;;;;;;62.80;35.17;;;;;;;;;;5061780;28;20346;-65
2022/01/05 06:48:20;;;;;;;63.13;33.03;;;;;;;;;;5091764;28;20265;-64
2022/01/05 06:50:50;;;;;;;76.60;46.63;;;;;;;;;;5060323;28;20247;-62
2022/01/05 06:53:27;;;;;;;56.57;32.60;;;;;;;;;;5058530;28;20709;-61
2022/01/05 06:55:57;;;;;;;68.63;35.33;;;;;;;;;;5070544;28;20233;-64
2022/01/05 06:58:27;;;;;;;74.60;45.70;;;;;;;;;;5070221;28;20235;-62
2022/01/05 07:00:55;;;;;;;58.47;31.10;;;;;;;;;;5069669;28;20611;-68
2022/01/05 07:03:23;;;;;;;59.83;32.70;;;;;;;;;;5071402;28;20259;-67
2022/01/05 07:05:50;;;;;;;57.43;31.40;;;;;;;;;;5064405;28;20246;-69
2022/01/05 07:08:19;;;;;;;53.10;29.37;;;;;;;;;;5071288;28;20231;-66
2022/01/05 07:10:47;;;;;;;53.63;31.57;;;;;;;;;;5073208;28;20238;-66
2022/01/05 07:13:14;;;;;;;71.00;34.47;;;;;;;;;;5072901;28;20231;-66
2022/01/05 07:15:41;;;;;;;59.83;31.77;;;;;;;;;;5073248;28;20231;-67
2022/01/05 07:18:08;;;;;;;89.90;57.30;;;;;;;;;;5072793;28;20322;-66
2022/01/05 07:20:36;;;;;;;50.17;31.27;;;;;;;;;;5071811;28;20243;-65
2022/01/05 07:23:03;;;;;;;54.13;33.00;;;;;;;;;;5059213;28;20235;-68
2022/01/05 07:25:31;;;;;;;60.47;35.13;;;;;;;;;;5072866;28;20568;-67
2022/01/05 07:27:58;;;;;;;49.07;30.27;;;;;;;;;;5069242;28;20326;-66
2022/01/05 07:30:26;;;;;;;52.17;31.77;;;;;;;;;;5061809;28;20796;-66
2022/01/05 07:32:54;;;;;;;56.93;34.77;;;;;;;;;;5063464;28;20347;-64
2022/01/05 07:35:26;;;;;;;70.70;40.83;;;;;;;;;;5060249;28;20259;-67
2022/01/05 07:38:07;;;;;;;65.13;37.43;;;;;;;;;;5060992;28;20235;-64
2022/01/05 07:40:40;;;;;;;105.13;49.67;;;;;;;;;;5056819;28;20255;-63
2022/01/05 07:43:08;;;;;;;57.87;34.47;;;;;;;;;;5053859;28;20247;-65
2022/01/05 07:45:36;;;;;;;69.47;38.53;;;;;;;;;;5059148;28;20629;-66
2022/01/05 07:48:04;;;;;;;70.37;38.60;;;;;;;;;;5051973;28;20236;-67
2022/01/05 07:54:43;;;;;;;71.00;35.70;;;;;;;;;;4448936;22;20243;-60
2022/01/05 07:57:11;;;;;;;85.37;40.63;;;;;;;;;;5061038;28;20314;-61
2022/01/05 07:59:38;;;;;;;176.83;77.00;;;;;;;;;;5043006;28;20334;-60
2022/01/05 08:02:07;;;;;;;123.10;48.67;;;;;;;;;;5065051;28;20278;-61
2022/01/05 08:04:35;;;;;;;97.17;40.30;;;;;;;;;;5050241;28;20235;-59
2022/01/05 08:07:03;;;;;;;144.93;53.13;;;;;;;;;;5068711;28;20235;-60
2022/01/05 08:09:30;;;;;;;76.97;35.87;;;;;;;;;;5071294;28;20604;-60
2022/01/05 08:11:58;;;;;;;145.07;49.57;;;;;;;;;;5069038;28;20236;-60
2022/01/05 08:14:25;;;;;;;116.80;43.63;;;;;;;;;;5062828;28;20235;-61
2022/01/05 08:16:52;;;;;;;99.13;41.47;;;;;;;;;;5044318;28;20235;-61
2022/01/05 08:19:20;;;;;;;62.77;30.97;;;;;;;;;;5061245;28;20228;-60
2022/01/05 08:21:47;;;;;;;60.20;37.13;;;;;;;;;;5062393;28;20724;-61
2022/01/05 08:24:15;;;;;;;57.10;30.13;;;;;;;;;;5067525;28;20238;-61
2022/01/05 08:26:43;;;;;;;55.97;30.03;;;;;;;;;;5070609;28;20236;-61
2022/01/05 08:29:10;;;;;;;58.40;31.77;;;;;;;;;;5064187;28;20238;-60
2022/01/05 08:31:37;;;;;;;40.97;26.10;;;;;;;;;;5075425;28;20322;-61
2022/01/05 08:34:05;;;;;;;53.33;30.60;;;;;;;;;;5075358;28;20227;-61
2022/01/05 08:36:32;;;;;;;52.37;29.57;;;;;;;;;;5076029;28;20638;-60
2022/01/05 08:39:00;;;;;;;52.10;28.30;;;;;;;;;;5074904;28;20246;-63
2022/01/05 08:41:28;;;;;;;177.00;74.23;;;;;;;;;;5076079;28;20296;-62
2022/01/05 08:43:55;;;;;;;73.30;36.60;;;;;;;;;;5076085;28;20686;-60
2022/01/05 08:46:22;;;;;;;51.43;32.70;;;;;;;;;;5076213;28;20214;-59
2022/01/05 08:48:50;;;;;;;48.50;30.33;;;;;;;;;;5058530;28;20219;-61
2022/01/05 08:51:17;;;;;;;54.97;29.97;;;;;;;;;;5076188;28;20207;-59
2022/01/05 08:53:44;;;;;;;58.27;32.83;;;;;;;;;;5071681;28;20246;-60
2022/01/05 08:56:12;;;;;;;93.27;39.50;;;;;;;;;;5066623;28;20207;-62
2022/01/05 08:58:39;;;;;;;74.83;33.57;;;;;;;;;;5066636;28;20685;-63
2022/01/05 09:01:10;;;;;;;113.90;44.73;;;;;;;;;;5073151;28;20266;-62
2022/01/05 09:03:38;;;;;;;101.83;61.00;;;;;;;;;;5074889;28;20207;-61
2022/01/05 09:06:06;;;;;;;66.37;34.80;;;;;;;;;;5048642;28;20207;-62
2022/01/05 09:08:35;;;;;;;72.20;35.00;;;;;;;;;;5061092;28;20215;-60
2022/01/05 09:11:03;;;;;;;147.77;45.80;;;;;;;;;;5061467;28;20211;-62
2022/01/05 09:13:30;;;;;;;160.50;50.67;;;;;;;;;;5075534;28;20219;-62
2022/01/05 09:15:57;;;;;;;73.47;32.13;;;;;;;;;;5054668;28;20218;-61
2022/01/05 09:18:24;;;;;;;68.83;30.07;;;;;;;;;;5068921;28;20223;-62
2022/01/05 09:20:52;;;;;;;58.07;30.33;;;;;;;;;;5072636;28;20227;-62
2022/01/05 09:23:19;;;;;;;59.07;32.33;;;;;;;;;;5074925;28;20221;-62
2022/01/05 09:25:46;;;;;;;42.53;25.47;;;;;;;;;;5068722;28;20222;-63
2022/01/05 09:28:13;;;;;;;53.90;27.13;;;;;;;;;;5066077;28;20678;-63
2022/01/05 09:30:45;;;;;;;42.43;23.57;;;;;;;;;;5068806;28;20235;-62
2022/01/05 09:33:14;;;;;;;59.60;29.33;;;;;;;;;;5051976;28;20270;-62
2022/01/05 09:35:42;;;;;;;36.03;22.63;;;;;;;;;;5075121;28;20214;-62
2022/01/05 09:38:22;;;;;;;66.47;30.37;;;;;;;;;;5075144;28;20219;-61
2022/01/05 09:43:48;;;;;;;366.23;215.63;;;;;;;;;;5074312;28;20299;-63
2022/01/05 09:46:30;;;;;;;46.73;24.93;;;;;;;;;;5071617;28;20280;-62
2022/01/05 09:49:02;;;;;;;48.07;22.33;;;;;;;;;;5074730;28;20207;-63
2022/01/05 09:51:31;;;;;;;39.37;21.30;;;;;;;;;;5074755;28;20261;-62
2022/01/05 09:54:00;;;;;;;52.87;25.17;;;;;;;;;;5074717;28;20633;-63
2022/01/05 09:56:49;;;;;;;46.77;23.63;;;;;;;;;;5074933;28;20215;-63
2022/01/05 09:59:16;;;;;;;64.10;25.90;;;;;;;;;;5074249;28;20268;-63
2022/01/05 10:01:44;;;;;;;135.07;40.47;;;;;;;;;;5066430;28;20239;-62
2022/01/05 10:04:13;;;;;;;121.13;68.70;;;;;;;;;;5073586;28;20211;-62
2022/01/05 10:06:41;;;;;;;97.00;37.57;;;;;;;;;;5072806;28;20302;-63
2022/01/05 10:09:08;;;;;;;53.57;26.00;;;;;;;;;;5064721;28;20212;-62
2022/01/05 10:11:36;;;;;;;44.07;22.10;;;;;;;;;;5067034;28;20621;-63
2022/01/05 10:14:06;;;;;;;38.03;21.43;;;;;;;;;;5071421;28;20211;-63
2022/01/05 10:16:33;;;;;;;76.77;30.23;;;;;;;;;;5068470;28;20215;-62
2022/01/05 10:19:01;;;;;;;89.97;31.13;;;;;;;;;;5073631;28;20906;-62
2022/01/05 10:21:39;;;;;;;53.43;23.43;;;;;;;;;;5073977;28;20239;-63
2022/01/05 10:24:09;;;;;;;79.53;28.67;;;;;;;;;;5074028;28;20218;-64
2022/01/05 10:26:39;;;;;;;33.23;20.80;;;;;;;;;;5074172;28;20215;-62
2022/01/05 10:29:13;;;;;;;29.53;18.53;;;;;;;;;;5074418;28;20212;-61
2022/01/05 10:31:42;;;;;;;36.83;19.97;;;;;;;;;;5073980;28;20238;-63
2022/01/05 10:34:18;;;;;;;74.00;29.80;;;;;;;;;;5073530;28;20238;-62
2022/01/05 10:36:49;;;;;;;55.50;24.43;;;;;;;;;;5074052;28;20206;-63
2022/01/05 10:39:27;;;;;;;106.00;34.83;;;;;;;;;;5073641;28;20246;-63
2022/01/05 10:42:07;;;;;;;38.53;20.60;;;;;;;;;;5073708;28;20749;-62
2022/01/05 10:44:35;;;;;;;49.43;21.60;;;;;;;;;;5073337;28;20207;-63
2022/01/05 10:47:03;;;;;;;40.03;23.77;;;;;;;;;;5073785;28;20298;-61
2022/01/05 10:49:38;;;;;;;40.60;20.40;;;;;;;;;;5073532;28;20250;-62
2022/01/05 10:52:20;;;;;;;58.37;25.20;;;;;;;;;;5074205;28;20203;-62
2022/01/05 10:54:49;;;;;;;34.63;19.50;;;;;;;;;;5040424;28;20237;-62
2022/01/05 10:57:17;;;;;;;45.20;21.90;;;;;;;;;;5073488;28;20309;-60
2022/01/05 10:59:53;;;;;;;49.03;23.73;;;;;;;;;;5073489;28;20211;-63
2022/01/05 11:02:30;;;;;;;46.63;23.00;;;;;;;;;;5073230;28;20771;-62
2022/01/05 11:05:12;;;;;;;36.13;20.67;;;;;;;;;;5073585;28;20211;-63
2022/01/05 11:07:42;;;;;;;69.97;34.90;;;;;;;;;;5073600;28;20227;-63
2022/01/05 11:10:11;;;;;;;29.57;19.53;;;;;;;;;;5050419;28;20207;-62
2022/01/05 11:12:57;;;;;;;47.60;24.23;;;;;;;;;;5071393;28;20199;-63
2022/01/05 11:15:33;;;;;;;36.23;20.67;;;;;;;;;;5072586;28;20211;-64
2022/01/05 11:18:12;;;;;;;39.43;23.03;;;;;;;;;;5073581;28;20210;-62
2022/01/05 11:20:57;;;;;;;89.17;34.73;;;;;;;;;;5073618;28;20293;-63
2022/01/05 11:23:26;;;;;;;74.27;29.00;;;;;;;;;;5073431;28;20207;-62
2022/01/05 11:25:56;;;;;;;90.27;31.47;;;;;;;;;;5073670;28;20597;-63
2022/01/05 11:28:28;;;;;;;80.57;44.37;;;;;;;;;;5073399;28;20273;-63
2022/01/05 11:30:57;;;;;;;38.97;21.37;;;;;;;;;;5057392;28;20215;-63
2022/01/05 11:33:24;;;;;;;31.70;20.40;;;;;;;;;;5073521;28;20222;-63
2022/01/05 11:35:51;;;;;;;30.57;20.33;;;;;;;;;;5072226;28;20211;-63
2022/01/05 11:38:19;;;;;;;30.87;20.53;;;;;;;;;;5073556;28;20249;-63
2022/01/05 11:40:52;;;;;;;35.63;22.13;;;;;;;;;;5073297;28;20273;-63
2022/01/05 11:43:26;;;;;;;50.03;23.73;;;;;;;;;;5072250;28;20277;-64
2022/01/05 11:45:54;;;;;;;97.30;34.70;;;;;;;;;;5071851;28;20211;-63
2022/01/05 11:48:30;;;;;;;32.83;21.53;;;;;;;;;;5073043;28;20295;-64
2022/01/05 11:51:02;;;;;;;65.00;31.23;;;;;;;;;;5072973;28;20890;-63
2022/01/05 11:53:38;;;;;;;51.20;25.10;;;;;;;;;;5072805;28;20691;-62
2022/01/05 11:56:09;;;;;;;29.00;19.67;;;;;;;;;;5073109;28;20211;-62
2022/01/05 11:58:49;;;;;;;48.57;23.20;;;;;;;;;;5077180;28;20212;-62
2022/01/05 12:01:16;;;;;;;155.03;46.93;;;;;;;;;;5075549;28;20620;-62
2022/01/05 12:03:50;;;;;;;37.17;21.93;;;;;;;;;;5067297;28;20291;-62
2022/01/05 12:06:19;;;;;;;34.43;22.00;;;;;;;;;;5067394;28;20218;-63
2022/01/05 12:08:48;;;;;;;37.67;24.33;;;;;;;;;;5034736;28;20206;-62
2022/01/05 12:11:35;;;;;;;41.93;24.77;;;;;;;;;;5069044;28;20215;-62
2022/01/05 12:14:20;;;;;;;39.83;22.90;;;;;;;;;;5065478;28;20203;-62
2022/01/05 12:17:01;;;;;;;34.37;22.23;;;;;;;;;;5066614;28;20282;-62
2022/01/05 12:19:32;;;;;;;52.60;25.40;;;;;;;;;;5066414;28;20257;-62
2022/01/05 12:22:17;;;;;;;36.37;22.37;;;;;;;;;;5067269;28;20230;-62
2022/01/05 12:25:27;;;;;;;53.10;25.63;;;;;;;;;;5061992;28;20208;-62
2022/01/05 12:27:51;;;;;;;36.60;21.80;;;;;;;;;;5062666;28;20277;-62
2022/01/05 12:30:19;;;;;;;98.47;58.17;;;;;;;;;;5066377;28;20235;-62
2022/01/05 12:32:48;;;;;;;46.03;28.00;;;;;;;;;;5064977;28;20317;-61
2022/01/05 12:35:17;;;;;;;39.40;22.87;;;;;;;;;;5064588;28;20807;-61
2022/01/05 12:38:04;;;;;;;45.60;24.33;;;;;;;;;;5066059;28;20236;-62
2022/01/05 12:40:49;;;;;;;40.40;23.23;;;;;;;;;;5064354;28;20608;-62
2022/01/05 12:43:21;;;;;;;35.87;23.10;;;;;;;;;;5068472;28;20795;-62
2022/01/05 12:46:03;;;;;;;53.53;26.37;;;;;;;;;;5067408;28;20227;-62
2022/01/05 12:48:30;;;;;;;36.33;22.60;;;;;;;;;;5065643;28;20231;-62
2022/01/05 12:51:11;;;;;;;44.50;25.27;;;;;;;;;;5067655;28;20718;-62
2022/01/05 12:54:06;;;;;;;66.20;33.83;;;;;;;;;;5063856;28;20240;-62
2022/01/05 12:56:53;;;;;;;39.57;23.87;;;;;;;;;;5064087;28;20223;-63
2022/01/05 12:59:22;;;;;;;38.63;22.00;;;;;;;;;;5075809;28;20235;-61
2022/01/05 13:01:53;;;;;;;36.73;22.67;;;;;;;;;;5075640;28;20239;-63
2022/01/05 13:04:24;;;;;;;39.47;23.80;;;;;;;;;;5074961;28;20237;-63
2022/01/05 13:06:54;;;;;;;35.83;21.93;;;;;;;;;;5076231;28;20290;-61
2022/01/05 13:09:38;;;;;;;41.03;22.93;;;;;;;;;;5075773;28;20211;-63
2022/01/05 13:12:08;;;;;;;49.33;26.13;;;;;;;;;;5075902;28;20210;-63
2022/01/05 13:14:48;;;;;;;55.35;29.92;;;;;;;;;;5076284;28;20207;-63
2022/01/05 13:17:28;;;;;;;47.33;26.43;;;;;;;;;;5075694;28;20208;-65
2022/01/05 13:20:03;;;;;;;44.53;25.93;;;;;;;;;;5075584;28;20697;-63
2022/01/05 13:22:37;;;;;;;42.63;26.17;;;;;;;;;;5075814;28;20239;-63
2022/01/05 13:25:22;;;;;;;64.80;30.40;;;;;;;;;;5075804;28;20203;-60
2022/01/05 13:27:52;;;;;;;46.43;26.33;;;;;;;;;;5075762;28;20214;-61
2022/01/05 13:30:23;;;;;;;36.67;24.70;;;;;;;;;;5075791;28;20614;-62
2022/01/05 13:32:57;;;;;;;44.20;25.57;;;;;;;;;;5075590;28;20682;-62
2022/01/05 13:35:30;;;;;;;78.20;42.60;;;;;;;;;;5062519;28;20613;-62
2022/01/05 13:37:59;;;;;;;61.63;29.23;;;;;;;;;;5064256;28;20240;-60
2022/01/05 13:40:31;;;;;;;53.97;27.30;;;;;;;;;;5065800;28;20247;-63
2022/01/05 13:43:01;;;;;;;49.53;25.33;;;;;;;;;;5067781;28;20258;-65
2022/01/05 13:45:33;;;;;;;49.17;25.43;;;;;;;;;;5063659;28;20227;-63
2022/01/05 13:48:04;;;;;;;49.40;24.67;;;;;;;;;;5066503;28;20243;-63
2022/01/05 13:50:53;;;;;;;53.80;25.93;;;;;;;;;;5063653;28;20243;-62
2022/01/05 13:53:25;;;;;;;44.00;24.87;;;;;;;;;;5075830;28;20227;-61
2022/01/05 13:55:55;;;;;;;55.77;29.53;;;;;;;;;;5064008;28;20239;-63
2022/01/05 13:58:24;;;;;;;49.57;26.30;;;;;;;;;;5068595;28;20232;-63
2022/01/05 14:01:02;;;;;;;54.83;26.93;;;;;;;;;;5068128;28;20231;-62
2022/01/05 14:03:38;;;;;;;47.70;25.80;;;;;;;;;;5062873;28;20246;-62
2022/01/05 14:06:08;;;;;;;66.33;29.27;;;;;;;;;;5046060;28;20816;-62
2022/01/05 14:08:37;;;;;;;54.17;29.73;;;;;;;;;;5065081;28;20240;-61
2022/01/05 14:11:10;;;;;;;56.53;28.57;;;;;;;;;;5063378;28;20323;-59
2022/01/05 14:13:41;;;;;;;88.90;33.40;;;;;;;;;;5065116;28;20241;-62
2022/01/05 14:16:14;;;;;;;164.17;69.37;;;;;;;;;;5073204;28;20262;-62
2022/01/05 14:18:43;;;;;;;60.37;30.60;;;;;;;;;;5074995;28;20235;-64
2022/01/05 14:21:10;;;;;;;52.70;28.40;;;;;;;;;;5073532;28;20640;-65
2022/01/05 14:23:42;;;;;;;50.70;27.53;;;;;;;;;;5073358;28;20254;-64
2022/01/05 14:26:10;;;;;;;58.60;30.60;;;;;;;;;;5074362;28;20231;-64
2022/01/05 14:28:37;;;;;;;50.60;28.50;;;;;;;;;;5075629;28;20671;-64
2022/01/05 14:31:15;;;;;;;58.37;30.40;;;;;;;;;;5073576;28;20235;-64
2022/01/05 14:33:48;;;;;;;106.43;39.90;;;;;;;;;;5073183;28;20253;-64
2022/01/05 14:36:26;;;;;;;198.10;125.40;;;;;;;;;;5073706;28;20697;-64
2022/01/05 14:38:57;;;;;;;76.17;37.97;;;;;;;;;;5073802;28;20234;-64
2022/01/05 14:41:37;;;;;;;86.03;36.67;;;;;;;;;;5073885;28;20322;-63
2022/01/05 14:44:06;;;;;;;63.67;31.00;;;;;;;;;;5073552;28;20250;-65
2022/01/05 14:46:35;;;;;;;63.20;31.97;;;;;;;;;;5073026;28;20241;-64